sensor_id;sensor_type;location;lat;lon;timestamp;P1;durP1;ratioP1;P2;durP2;ratioP2
70545;SDS011;58098;51.680;5.134;2023-07-16T00:01:12;5.97;;;2.08;;
70545;SDS011;58098;51.680;5.134;2023-07-16T00:03:37;8.50;;;2.70;;
70545;SDS011;58098;51.680;5.134;2023-07-16T00:06:02;6.57;;;2.00;;
70545;SDS011;58098;51.680;5.134;2023-07-16T00:08:28;10.57;;;2.63;;
70545;SDS011;58098;51.680;5.134;2023-07-16T00:10:53;7.83;;;2.37;;
70545;SDS011;58098;51.680;5.134;2023-07-16T00:13:18;8.27;;;2.87;;
70545;SDS011;58098;51.680;5.134;2023-07-16T00:15:44;5.60;;;2.40;;
70545;SDS011;58098;51.680;5.134;2023-07-16T00:18:09;8.07;;;2.83;;
70545;SDS011;58098;51.680;5.134;2023-07-16T00:20:34;7.75;;;2.50;;
70545;SDS011;58098;51.680;5.134;2023-07-16T00:23:00;9.80;;;2.70;;
70545;SDS011;58098;51.680;5.134;2023-07-16T00:25:25;7.00;;;2.47;;
70545;SDS011;58098;51.680;5.134;2023-07-16T00:27:50;9.50;;;2.40;;
70545;SDS011;58098;51.680;5.134;2023-07-16T00:30:15;9.13;;;2.77;;
70545;SDS011;58098;51.680;5.134;2023-07-16T00:32:41;8.70;;;2.63;;
70545;SDS011;58098;51.680;5.134;2023-07-16T00:35:06;6.37;;;2.57;;
70545;SDS011;58098;51.680;5.134;2023-07-16T00:37:33;8.95;;;2.40;;
70545;SDS011;58098;51.680;5.134;2023-07-16T00:39:59;7.25;;;2.47;;
70545;SDS011;58098;51.680;5.134;2023-07-16T00:42:24;9.33;;;2.23;;
70545;SDS011;58098;51.680;5.134;2023-07-16T00:44:49;7.70;;;2.47;;
70545;SDS011;58098;51.680;5.134;2023-07-16T00:47:15;9.50;;;2.20;;
70545;SDS011;58098;51.680;5.134;2023-07-16T00:49:41;5.45;;;2.25;;
70545;SDS011;58098;51.680;5.134;2023-07-16T00:52:07;8.23;;;2.67;;
70545;SDS011;58098;51.680;5.134;2023-07-16T00:54:36;14.48;;;2.72;;
70545;SDS011;58098;51.680;5.134;2023-07-16T00:57:03;6.80;;;2.42;;
70545;SDS011;58098;51.680;5.134;2023-07-16T00:59:28;9.15;;;2.90;;
70545;SDS011;58098;51.680;5.134;2023-07-16T01:01:54;8.67;;;2.87;;
70545;SDS011;58098;51.680;5.134;2023-07-16T01:04:19;9.60;;;2.87;;
70545;SDS011;58098;51.680;5.134;2023-07-16T01:06:46;13.93;;;3.10;;
70545;SDS011;58098;51.680;5.134;2023-07-16T01:09:15;7.88;;;2.78;;
70545;SDS011;58098;51.680;5.134;2023-07-16T01:11:42;9.90;;;2.97;;
70545;SDS011;58098;51.680;5.134;2023-07-16T01:14:08;8.70;;;2.97;;
70545;SDS011;58098;51.680;5.134;2023-07-16T01:16:35;9.00;;;2.90;;
70545;SDS011;58098;51.680;5.134;2023-07-16T01:19:00;12.53;;;3.23;;
70545;SDS011;58098;51.680;5.134;2023-07-16T01:21:31;9.35;;;2.97;;
70545;SDS011;58098;51.680;5.134;2023-07-16T01:27:14;13.15;;;3.00;;
70545;SDS011;58098;51.680;5.134;2023-07-16T01:29:40;9.50;;;3.25;;
70545;SDS011;58098;51.680;5.134;2023-07-16T01:32:09;8.37;;;3.03;;
70545;SDS011;58098;51.680;5.134;2023-07-16T01:34:37;11.00;;;3.17;;
70545;SDS011;58098;51.680;5.134;2023-07-16T01:37:03;9.85;;;4.05;;
70545;SDS011;58098;51.680;5.134;2023-07-16T01:39:30;13.23;;;3.20;;
70545;SDS011;58098;51.680;5.134;2023-07-16T01:41:57;10.77;;;3.17;;
70545;SDS011;58098;51.680;5.134;2023-07-16T01:44:23;7.70;;;3.17;;
70545;SDS011;58098;51.680;5.134;2023-07-16T01:46:49;10.17;;;2.77;;
70545;SDS011;58098;51.680;5.134;2023-07-16T01:49:29;10.23;;;3.10;;
70545;SDS011;58098;51.680;5.134;2023-07-16T01:51:55;13.23;;;3.40;;
70545;SDS011;58098;51.680;5.134;2023-07-16T01:54:20;11.03;;;3.53;;
70545;SDS011;58098;51.680;5.134;2023-07-16T01:56:45;11.20;;;3.17;;
70545;SDS011;58098;51.680;5.134;2023-07-16T01:59:11;12.97;;;3.30;;
70545;SDS011;58098;51.680;5.134;2023-07-16T02:01:36;8.90;;;3.03;;
70545;SDS011;58098;51.680;5.134;2023-07-16T02:04:01;8.97;;;2.83;;
70545;SDS011;58098;51.680;5.134;2023-07-16T02:06:27;16.33;;;3.17;;
70545;SDS011;58098;51.680;5.134;2023-07-16T02:08:52;6.90;;;2.47;;
70545;SDS011;58098;51.680;5.134;2023-07-16T02:11:17;9.70;;;3.20;;
70545;SDS011;58098;51.680;5.134;2023-07-16T02:13:43;9.37;;;3.20;;
70545;SDS011;58098;51.680;5.134;2023-07-16T02:16:08;12.97;;;3.23;;
70545;SDS011;58098;51.680;5.134;2023-07-16T02:18:33;9.90;;;2.90;;
70545;SDS011;58098;51.680;5.134;2023-07-16T02:20:59;14.17;;;3.83;;
70545;SDS011;58098;51.680;5.134;2023-07-16T02:23:24;11.20;;;3.37;;
70545;SDS011;58098;51.680;5.134;2023-07-16T02:25:49;7.43;;;2.53;;
70545;SDS011;58098;51.680;5.134;2023-07-16T02:28:15;9.70;;;2.83;;
70545;SDS011;58098;51.680;5.134;2023-07-16T02:30:41;10.40;;;2.50;;
70545;SDS011;58098;51.680;5.134;2023-07-16T02:33:07;9.32;;;3.08;;
70545;SDS011;58098;51.680;5.134;2023-07-16T02:35:32;8.20;;;3.20;;
70545;SDS011;58098;51.680;5.134;2023-07-16T02:37:57;5.60;;;2.60;;
70545;SDS011;58098;51.680;5.134;2023-07-16T02:40:23;10.80;;;2.80;;
70545;SDS011;58098;51.680;5.134;2023-07-16T02:42:48;6.97;;;2.50;;
70545;SDS011;58098;51.680;5.134;2023-07-16T02:45:13;12.10;;;3.10;;
70545;SDS011;58098;51.680;5.134;2023-07-16T02:47:39;10.30;;;3.20;;
70545;SDS011;58098;51.680;5.134;2023-07-16T02:50:04;12.07;;;3.83;;
70545;SDS011;58098;51.680;5.134;2023-07-16T02:52:30;7.33;;;2.77;;
70545;SDS011;58098;51.680;5.134;2023-07-16T02:54:55;7.93;;;2.90;;
70545;SDS011;58098;51.680;5.134;2023-07-16T02:57:21;11.50;;;3.60;;
70545;SDS011;58098;51.680;5.134;2023-07-16T02:59:47;11.85;;;3.28;;
70545;SDS011;58098;51.680;5.134;2023-07-16T03:02:13;12.60;;;3.53;;
70545;SDS011;58098;51.680;5.134;2023-07-16T03:04:38;10.27;;;3.70;;
70545;SDS011;58098;51.680;5.134;2023-07-16T03:07:04;9.90;;;3.30;;
70545;SDS011;58098;51.680;5.134;2023-07-16T03:09:29;10.45;;;3.60;;
70545;SDS011;58098;51.680;5.134;2023-07-16T03:11:55;14.00;;;3.53;;
70545;SDS011;58098;51.680;5.134;2023-07-16T03:14:20;10.63;;;3.47;;
70545;SDS011;58098;51.680;5.134;2023-07-16T03:16:45;10.23;;;4.20;;
70545;SDS011;58098;51.680;5.134;2023-07-16T03:19:11;7.47;;;3.47;;
70545;SDS011;58098;51.680;5.134;2023-07-16T03:21:36;11.13;;;3.88;;
70545;SDS011;58098;51.680;5.134;2023-07-16T03:24:02;13.67;;;3.30;;
70545;SDS011;58098;51.680;5.134;2023-07-16T03:26:27;11.57;;;3.73;;
70545;SDS011;58098;51.680;5.134;2023-07-16T03:28:52;9.40;;;3.60;;
70545;SDS011;58098;51.680;5.134;2023-07-16T03:31:18;8.17;;;3.23;;
70545;SDS011;58098;51.680;5.134;2023-07-16T03:33:43;10.15;;;3.28;;
70545;SDS011;58098;51.680;5.134;2023-07-16T03:36:08;9.50;;;3.20;;
70545;SDS011;58098;51.680;5.134;2023-07-16T03:38:34;8.67;;;3.30;;
70545;SDS011;58098;51.680;5.134;2023-07-16T03:40:59;11.77;;;3.63;;
70545;SDS011;58098;51.680;5.134;2023-07-16T03:43:25;9.53;;;3.67;;
70545;SDS011;58098;51.680;5.134;2023-07-16T03:45:50;12.20;;;3.80;;
70545;SDS011;58098;51.680;5.134;2023-07-16T03:48:15;14.83;;;3.93;;
70545;SDS011;58098;51.680;5.134;2023-07-16T03:50:41;14.70;;;3.80;;
70545;SDS011;58098;51.680;5.134;2023-07-16T03:53:06;10.97;;;3.80;;
70545;SDS011;58098;51.680;5.134;2023-07-16T03:55:33;11.38;;;4.03;;
70545;SDS011;58098;51.680;5.134;2023-07-16T03:57:58;11.20;;;4.20;;
70545;SDS011;58098;51.680;5.134;2023-07-16T04:00:23;7.83;;;3.80;;
70545;SDS011;58098;51.680;5.134;2023-07-16T04:02:48;9.67;;;4.20;;
70545;SDS011;58098;51.680;5.134;2023-07-16T04:05:14;10.77;;;4.17;;
70545;SDS011;58098;51.680;5.134;2023-07-16T04:07:39;10.03;;;4.03;;
70545;SDS011;58098;51.680;5.134;2023-07-16T04:10:05;11.53;;;4.20;;
70545;SDS011;58098;51.680;5.134;2023-07-16T04:12:30;11.95;;;3.90;;
70545;SDS011;58098;51.680;5.134;2023-07-16T04:14:57;12.67;;;4.33;;
70545;SDS011;58098;51.680;5.134;2023-07-16T04:17:23;13.77;;;4.20;;
70545;SDS011;58098;51.680;5.134;2023-07-16T04:19:49;10.03;;;4.30;;
70545;SDS011;58098;51.680;5.134;2023-07-16T04:22:14;10.57;;;4.10;;
70545;SDS011;58098;51.680;5.134;2023-07-16T04:24:40;12.20;;;4.70;;
70545;SDS011;58098;51.680;5.134;2023-07-16T04:27:05;10.10;;;4.57;;
70545;SDS011;58098;51.680;5.134;2023-07-16T04:29:30;9.20;;;4.93;;
70545;SDS011;58098;51.680;5.134;2023-07-16T04:31:56;10.90;;;4.23;;
70545;SDS011;58098;51.680;5.134;2023-07-16T04:34:21;9.73;;;3.85;;
70545;SDS011;58098;51.680;5.134;2023-07-16T04:36:46;12.10;;;4.40;;
70545;SDS011;58098;51.680;5.134;2023-07-16T04:39:12;13.00;;;4.83;;
70545;SDS011;58098;51.680;5.134;2023-07-16T04:41:37;15.40;;;4.33;;
70545;SDS011;58098;51.680;5.134;2023-07-16T04:44:04;10.43;;;4.43;;
70545;SDS011;58098;51.680;5.134;2023-07-16T04:46:30;9.23;;;4.10;;
70545;SDS011;58098;51.680;5.134;2023-07-16T04:48:55;12.47;;;4.40;;
70545;SDS011;58098;51.680;5.134;2023-07-16T04:51:21;12.48;;;4.68;;
70545;SDS011;58098;51.680;5.134;2023-07-16T04:53:47;11.77;;;4.83;;
70545;SDS011;58098;51.680;5.134;2023-07-16T04:56:13;14.93;;;5.40;;
70545;SDS011;58098;51.680;5.134;2023-07-16T04:58:40;10.88;;;4.93;;
70545;SDS011;58098;51.680;5.134;2023-07-16T05:01:06;11.33;;;4.73;;
70545;SDS011;58098;51.680;5.134;2023-07-16T05:03:32;11.07;;;4.43;;
70545;SDS011;58098;51.680;5.134;2023-07-16T05:05:57;14.53;;;5.03;;
70545;SDS011;58098;51.680;5.134;2023-07-16T05:08:23;10.47;;;5.03;;
70545;SDS011;58098;51.680;5.134;2023-07-16T05:10:48;14.53;;;5.43;;
70545;SDS011;58098;51.680;5.134;2023-07-16T05:13:13;12.63;;;5.40;;
70545;SDS011;58098;51.680;5.134;2023-07-16T05:15:40;11.63;;;5.03;;
70545;SDS011;58098;51.680;5.134;2023-07-16T05:18:05;13.33;;;5.20;;
70545;SDS011;58098;51.680;5.134;2023-07-16T05:20:31;19.58;;;5.53;;
70545;SDS011;58098;51.680;5.134;2023-07-16T05:22:56;10.40;;;5.33;;
70545;SDS011;58098;51.680;5.134;2023-07-16T05:25:22;12.07;;;4.97;;
70545;SDS011;58098;51.680;5.134;2023-07-16T05:27:47;12.73;;;5.97;;
70545;SDS011;58098;51.680;5.134;2023-07-16T05:30:12;12.23;;;5.20;;
70545;SDS011;58098;51.680;5.134;2023-07-16T05:32:37;12.73;;;5.43;;
70545;SDS011;58098;51.680;5.134;2023-07-16T05:35:03;10.50;;;5.00;;
70545;SDS011;58098;51.680;5.134;2023-07-16T05:37:29;13.67;;;5.40;;
70545;SDS011;58098;51.680;5.134;2023-07-16T05:39:54;15.07;;;5.70;;
70545;SDS011;58098;51.680;5.134;2023-07-16T05:42:20;16.70;;;5.03;;
70545;SDS011;58098;51.680;5.134;2023-07-16T05:44:47;16.37;;;5.63;;
70545;SDS011;58098;51.680;5.134;2023-07-16T05:47:12;12.82;;;5.63;;
70545;SDS011;58098;51.680;5.134;2023-07-16T05:49:38;13.23;;;5.30;;
70545;SDS011;58098;51.680;5.134;2023-07-16T05:52:03;10.43;;;5.70;;
70545;SDS011;58098;51.680;5.134;2023-07-16T05:54:29;12.07;;;5.47;;
70545;SDS011;58098;51.680;5.134;2023-07-16T05:56:54;13.15;;;5.22;;
70545;SDS011;58098;51.680;5.134;2023-07-16T05:59:19;14.43;;;5.40;;
70545;SDS011;58098;51.680;5.134;2023-07-16T06:01:45;14.53;;;5.63;;
70545;SDS011;58098;51.680;5.134;2023-07-16T06:04:10;13.77;;;4.90;;
70545;SDS011;58098;51.680;5.134;2023-07-16T06:06:35;11.97;;;5.30;;
70545;SDS011;58098;51.680;5.134;2023-07-16T06:09:01;12.40;;;5.60;;
70545;SDS011;58098;51.680;5.134;2023-07-16T06:11:26;14.52;;;5.80;;
70545;SDS011;58098;51.680;5.134;2023-07-16T06:13:55;11.83;;;5.33;;
70545;SDS011;58098;51.680;5.134;2023-07-16T06:16:20;15.70;;;6.00;;
70545;SDS011;58098;51.680;5.134;2023-07-16T06:18:45;18.08;;;5.65;;
70545;SDS011;58098;51.680;5.134;2023-07-16T06:21:11;13.10;;;6.50;;
70545;SDS011;58098;51.680;5.134;2023-07-16T06:23:36;15.03;;;5.77;;
70545;SDS011;58098;51.680;5.134;2023-07-16T06:26:03;12.30;;;6.00;;
70545;SDS011;58098;51.680;5.134;2023-07-16T06:28:28;12.87;;;6.10;;
70545;SDS011;58098;51.680;5.134;2023-07-16T06:30:53;14.10;;;6.10;;
70545;SDS011;58098;51.680;5.134;2023-07-16T06:33:19;18.90;;;6.50;;
70545;SDS011;58098;51.680;5.134;2023-07-16T06:35:45;16.75;;;6.25;;
70545;SDS011;58098;51.680;5.134;2023-07-16T06:38:12;12.53;;;6.23;;
70545;SDS011;58098;51.680;5.134;2023-07-16T06:40:37;12.20;;;6.10;;
70545;SDS011;58098;51.680;5.134;2023-07-16T06:43:03;17.87;;;5.80;;
70545;SDS011;58098;51.680;5.134;2023-07-16T06:45:28;14.00;;;6.10;;
70545;SDS011;58098;51.680;5.134;2023-07-16T06:47:53;15.03;;;6.40;;
70545;SDS011;58098;51.680;5.134;2023-07-16T06:50:19;13.17;;;5.63;;
70545;SDS011;58098;51.680;5.134;2023-07-16T06:52:44;11.33;;;5.03;;
70545;SDS011;58098;51.680;5.134;2023-07-16T06:55:09;16.02;;;6.75;;
70545;SDS011;58098;51.680;5.134;2023-07-16T06:57:35;18.70;;;6.20;;
70545;SDS011;58098;51.680;5.134;2023-07-16T07:00:00;11.10;;;5.90;;
70545;SDS011;58098;51.680;5.134;2023-07-16T07:02:25;15.03;;;5.90;;
70545;SDS011;58098;51.680;5.134;2023-07-16T07:04:50;18.53;;;6.00;;
70545;SDS011;58098;51.680;5.134;2023-07-16T07:07:16;15.63;;;5.67;;
70545;SDS011;58098;51.680;5.134;2023-07-16T07:09:42;11.95;;;5.60;;
70545;SDS011;58098;51.680;5.134;2023-07-16T07:12:08;17.93;;;6.70;;
70545;SDS011;58098;51.680;5.134;2023-07-16T07:14:33;12.98;;;6.55;;
70545;SDS011;58098;51.680;5.134;2023-07-16T07:16:59;11.93;;;6.57;;
70545;SDS011;58098;51.680;5.134;2023-07-16T07:19:24;16.03;;;6.13;;
70545;SDS011;58098;51.680;5.134;2023-07-16T07:21:49;16.63;;;6.47;;
70545;SDS011;58098;51.680;5.134;2023-07-16T07:24:15;14.70;;;6.30;;
70545;SDS011;58098;51.680;5.134;2023-07-16T07:26:40;15.90;;;6.53;;
70545;SDS011;58098;51.680;5.134;2023-07-16T07:29:06;14.30;;;6.20;;
70545;SDS011;58098;51.680;5.134;2023-07-16T07:31:31;12.83;;;6.37;;
70545;SDS011;58098;51.680;5.134;2023-07-16T07:33:56;14.13;;;5.97;;
70545;SDS011;58098;51.680;5.134;2023-07-16T07:36:22;12.10;;;6.10;;
70545;SDS011;58098;51.680;5.134;2023-07-16T07:38:48;13.57;;;6.13;;
70545;SDS011;58098;51.680;5.134;2023-07-16T07:41:13;13.43;;;5.87;;
70545;SDS011;58098;51.680;5.134;2023-07-16T07:43:39;12.80;;;5.77;;
70545;SDS011;58098;51.680;5.134;2023-07-16T07:46:04;13.13;;;5.43;;
70545;SDS011;58098;51.680;5.134;2023-07-16T07:48:30;15.93;;;5.90;;
70545;SDS011;58098;51.680;5.134;2023-07-16T07:50:56;12.67;;;5.50;;
70545;SDS011;58098;51.680;5.134;2023-07-16T07:53:21;13.35;;;5.45;;
70545;SDS011;58098;51.680;5.134;2023-07-16T07:55:47;13.20;;;5.83;;
70545;SDS011;58098;51.680;5.134;2023-07-16T07:58:12;15.97;;;6.10;;
70545;SDS011;58098;51.680;5.134;2023-07-16T08:00:38;12.73;;;6.10;;
70545;SDS011;58098;51.680;5.134;2023-07-16T08:03:04;12.55;;;5.75;;
70545;SDS011;58098;51.680;5.134;2023-07-16T08:05:29;17.17;;;5.83;;
70545;SDS011;58098;51.680;5.134;2023-07-16T08:07:54;12.70;;;5.70;;
70545;SDS011;58098;51.680;5.134;2023-07-16T08:10:20;13.70;;;5.68;;
70545;SDS011;58098;51.680;5.134;2023-07-16T08:12:46;12.23;;;5.93;;
70545;SDS011;58098;51.680;5.134;2023-07-16T08:15:12;11.73;;;6.10;;
70545;SDS011;58098;51.680;5.134;2023-07-16T08:17:42;16.60;;;6.25;;
70545;SDS011;58098;51.680;5.134;2023-07-16T08:20:09;14.48;;;6.20;;
70545;SDS011;58098;51.680;5.134;2023-07-16T08:22:35;12.73;;;5.80;;
70545;SDS011;58098;51.680;5.134;2023-07-16T08:25:00;13.57;;;5.83;;
70545;SDS011;58098;51.680;5.134;2023-07-16T08:27:26;12.25;;;5.50;;
70545;SDS011;58098;51.680;5.134;2023-07-16T08:29:51;12.67;;;5.47;;
70545;SDS011;58098;51.680;5.134;2023-07-16T08:32:16;13.50;;;5.90;;
70545;SDS011;58098;51.680;5.134;2023-07-16T08:34:42;14.17;;;5.80;;
70545;SDS011;58098;51.680;5.134;2023-07-16T08:37:07;11.83;;;5.30;;
70545;SDS011;58098;51.680;5.134;2023-07-16T08:39:33;15.87;;;6.03;;
70545;SDS011;58098;51.680;5.134;2023-07-16T08:41:58;11.17;;;5.30;;
70545;SDS011;58098;51.680;5.134;2023-07-16T08:44:24;12.68;;;6.00;;
70545;SDS011;58098;51.680;5.134;2023-07-16T08:46:50;12.23;;;5.53;;
70545;SDS011;58098;51.680;5.134;2023-07-16T08:49:17;10.75;;;5.53;;
70545;SDS011;58098;51.680;5.134;2023-07-16T08:51:44;11.80;;;5.27;;
70545;SDS011;58098;51.680;5.134;2023-07-16T08:54:13;11.35;;;5.00;;
70545;SDS011;58098;51.680;5.134;2023-07-16T08:56:45;11.73;;;5.57;;
70545;SDS011;58098;51.680;5.134;2023-07-16T08:59:12;12.10;;;5.20;;
70545;SDS011;58098;51.680;5.134;2023-07-16T09:01:39;15.93;;;6.03;;
70545;SDS011;58098;51.680;5.134;2023-07-16T09:04:04;12.93;;;5.03;;
70545;SDS011;58098;51.680;5.134;2023-07-16T09:06:30;12.07;;;5.40;;
70545;SDS011;58098;51.680;5.134;2023-07-16T09:08:55;11.00;;;5.67;;
70545;SDS011;58098;51.680;5.134;2023-07-16T09:11:21;13.17;;;5.20;;
70545;SDS011;58098;51.680;5.134;2023-07-16T09:13:47;13.50;;;5.72;;
70545;SDS011;58098;51.680;5.134;2023-07-16T09:16:14;14.73;;;5.63;;
70545;SDS011;58098;51.680;5.134;2023-07-16T09:18:41;13.75;;;5.60;;
70545;SDS011;58098;51.680;5.134;2023-07-16T09:21:07;14.23;;;4.97;;
70545;SDS011;58098;51.680;5.134;2023-07-16T09:23:33;10.93;;;5.45;;
70545;SDS011;58098;51.680;5.134;2023-07-16T09:25:59;14.80;;;5.95;;
70545;SDS011;58098;51.680;5.134;2023-07-16T09:28:25;12.63;;;5.77;;
70545;SDS011;58098;51.680;5.134;2023-07-16T09:30:51;13.63;;;5.13;;
70545;SDS011;58098;51.680;5.134;2023-07-16T09:33:21;13.50;;;5.38;;
70545;SDS011;58098;51.680;5.134;2023-07-16T09:35:49;13.50;;;5.78;;
70545;SDS011;58098;51.680;5.134;2023-07-16T09:38:15;11.23;;;5.27;;
70545;SDS011;58098;51.680;5.134;2023-07-16T09:40:42;13.18;;;5.30;;
70545;SDS011;58098;51.680;5.134;2023-07-16T09:43:08;10.27;;;5.20;;
70545;SDS011;58098;51.680;5.134;2023-07-16T09:45:34;13.07;;;5.20;;
70545;SDS011;58098;51.680;5.134;2023-07-16T09:48:00;9.57;;;4.95;;
70545;SDS011;58098;51.680;5.134;2023-07-16T09:50:29;9.43;;;5.28;;
70545;SDS011;58098;51.680;5.134;2023-07-16T09:52:56;9.30;;;4.73;;
70545;SDS011;58098;51.680;5.134;2023-07-16T09:55:22;13.13;;;5.25;;
70545;SDS011;58098;51.680;5.134;2023-07-16T09:57:48;12.93;;;4.85;;
70545;SDS011;58098;51.680;5.134;2023-07-16T10:00:17;13.38;;;5.80;;
70545;SDS011;58098;51.680;5.134;2023-07-16T10:02:45;10.90;;;4.88;;
70545;SDS011;58098;51.680;5.134;2023-07-16T10:05:12;10.10;;;4.83;;
70545;SDS011;58098;51.680;5.134;2023-07-16T10:07:42;10.38;;;4.93;;
70545;SDS011;58098;51.680;5.134;2023-07-16T10:10:08;11.05;;;5.07;;
70545;SDS011;58098;51.680;5.134;2023-07-16T10:12:35;10.95;;;4.75;;
70545;SDS011;58098;51.680;5.134;2023-07-16T10:15:00;10.95;;;4.45;;
70545;SDS011;58098;51.680;5.134;2023-07-16T10:17:29;13.97;;;4.83;;
70545;SDS011;58098;51.680;5.134;2023-07-16T10:22:39;10.25;;;4.80;;
70545;SDS011;58098;51.680;5.134;2023-07-16T10:25:10;11.32;;;4.80;;
70545;SDS011;58098;51.680;5.134;2023-07-16T10:27:47;13.35;;;5.05;;
70545;SDS011;58098;51.680;5.134;2023-07-16T10:30:14;10.07;;;4.37;;
70545;SDS011;58098;51.680;5.134;2023-07-16T10:32:40;12.80;;;4.97;;
70545;SDS011;58098;51.680;5.134;2023-07-16T10:35:06;9.00;;;5.05;;
70545;SDS011;58098;51.680;5.134;2023-07-16T10:37:35;14.20;;;5.25;;
70545;SDS011;58098;51.680;5.134;2023-07-16T10:40:02;12.53;;;5.00;;
70545;SDS011;58098;51.680;5.134;2023-07-16T10:42:28;12.25;;;5.15;;
70545;SDS011;58098;51.680;5.134;2023-07-16T10:44:57;13.10;;;5.78;;
70545;SDS011;58098;51.680;5.134;2023-07-16T10:47:24;15.20;;;5.50;;
70545;SDS011;58098;51.680;5.134;2023-07-16T10:49:55;12.98;;;5.50;;
70545;SDS011;58098;51.680;5.134;2023-07-16T10:52:22;9.13;;;4.70;;
70545;SDS011;58098;51.680;5.134;2023-07-16T10:54:48;11.77;;;5.22;;
70545;SDS011;58098;51.680;5.134;2023-07-16T10:57:19;8.63;;;4.60;;
70545;SDS011;58098;51.680;5.134;2023-07-16T10:59:45;12.80;;;5.10;;
70545;SDS011;58098;51.680;5.134;2023-07-16T11:02:14;11.35;;;5.13;;
70545;SDS011;58098;51.680;5.134;2023-07-16T11:04:40;9.80;;;5.07;;
70545;SDS011;58098;51.680;5.134;2023-07-16T11:07:07;12.40;;;5.37;;
70545;SDS011;58098;51.680;5.134;2023-07-16T11:09:34;12.77;;;5.40;;
70545;SDS011;58098;51.680;5.134;2023-07-16T11:12:06;15.20;;;5.45;;
70545;SDS011;58098;51.680;5.134;2023-07-16T11:14:33;12.27;;;5.18;;
70545;SDS011;58098;51.680;5.134;2023-07-16T11:17:08;10.20;;;5.30;;
70545;SDS011;58098;51.680;5.134;2023-07-16T11:19:34;12.43;;;4.47;;
70545;SDS011;58098;51.680;5.134;2023-07-16T11:22:01;11.18;;;4.75;;
70545;SDS011;58098;51.680;5.134;2023-07-16T11:24:28;9.27;;;5.00;;
70545;SDS011;58098;51.680;5.134;2023-07-16T11:26:54;10.60;;;4.50;;
70545;SDS011;58098;51.680;5.134;2023-07-16T11:29:22;10.07;;;5.60;;
70545;SDS011;58098;51.680;5.134;2023-07-16T11:31:51;10.93;;;5.25;;
70545;SDS011;58098;51.680;5.134;2023-07-16T11:34:19;12.23;;;5.65;;
70545;SDS011;58098;51.680;5.134;2023-07-16T11:36:46;11.13;;;5.07;;
70545;SDS011;58098;51.680;5.134;2023-07-16T11:39:11;10.18;;;5.40;;
70545;SDS011;58098;51.680;5.134;2023-07-16T11:41:37;14.73;;;5.37;;
70545;SDS011;58098;51.680;5.134;2023-07-16T11:44:03;13.73;;;5.20;;
70545;SDS011;58098;51.680;5.134;2023-07-16T11:46:31;10.23;;;4.73;;
70545;SDS011;58098;51.680;5.134;2023-07-16T11:48:58;10.88;;;5.25;;
70545;SDS011;58098;51.680;5.134;2023-07-16T11:51:24;11.65;;;4.63;;
70545;SDS011;58098;51.680;5.134;2023-07-16T11:53:50;8.80;;;4.90;;
70545;SDS011;58098;51.680;5.134;2023-07-16T11:56:15;9.75;;;4.50;;
70545;SDS011;58098;51.680;5.134;2023-07-16T11:58:40;10.20;;;5.03;;
70545;SDS011;58098;51.680;5.134;2023-07-16T12:01:06;9.37;;;4.40;;
70545;SDS011;58098;51.680;5.134;2023-07-16T12:03:31;10.37;;;4.87;;
70545;SDS011;58098;51.680;5.134;2023-07-16T12:05:56;11.53;;;5.63;;
70545;SDS011;58098;51.680;5.134;2023-07-16T12:08:22;13.37;;;5.07;;
70545;SDS011;58098;51.680;5.134;2023-07-16T12:10:47;11.75;;;5.00;;
70545;SDS011;58098;51.680;5.134;2023-07-16T12:13:13;9.53;;;4.73;;
70545;SDS011;58098;51.680;5.134;2023-07-16T12:15:38;9.70;;;4.87;;
70545;SDS011;58098;51.680;5.134;2023-07-16T12:18:03;12.27;;;4.90;;
70545;SDS011;58098;51.680;5.134;2023-07-16T12:20:29;11.30;;;5.17;;
70545;SDS011;58098;51.680;5.134;2023-07-16T12:22:54;11.83;;;4.97;;
70545;SDS011;58098;51.680;5.134;2023-07-16T12:25:19;15.48;;;5.60;;
70545;SDS011;58098;51.680;5.134;2023-07-16T12:27:45;14.77;;;5.90;;
70545;SDS011;58098;51.680;5.134;2023-07-16T12:30:10;12.07;;;5.90;;
70545;SDS011;58098;51.680;5.134;2023-07-16T12:32:36;11.97;;;5.73;;
70545;SDS011;58098;51.680;5.134;2023-07-16T12:35:02;11.45;;;5.65;;
70545;SDS011;58098;51.680;5.134;2023-07-16T12:37:29;10.00;;;5.15;;
70545;SDS011;58098;51.680;5.134;2023-07-16T12:39:55;10.82;;;5.25;;
70545;SDS011;58098;51.680;5.134;2023-07-16T12:42:20;13.50;;;5.47;;
70545;SDS011;58098;51.680;5.134;2023-07-16T12:44:45;9.67;;;4.83;;
70545;SDS011;58098;51.680;5.134;2023-07-16T12:47:11;9.07;;;4.00;;
70545;SDS011;58098;51.680;5.134;2023-07-16T12:49:37;9.90;;;4.20;;
70545;SDS011;58098;51.680;5.134;2023-07-16T12:52:02;8.07;;;3.90;;
70545;SDS011;58098;51.680;5.134;2023-07-16T12:54:28;9.07;;;4.10;;
70545;SDS011;58098;51.680;5.134;2023-07-16T12:56:54;7.93;;;3.60;;
70545;SDS011;58098;51.680;5.134;2023-07-16T12:59:19;11.77;;;4.03;;
70545;SDS011;58098;51.680;5.134;2023-07-16T13:01:45;6.90;;;3.43;;
70545;SDS011;58098;51.680;5.134;2023-07-16T13:04:10;5.33;;;3.13;;
70545;SDS011;58098;51.680;5.134;2023-07-16T13:06:35;8.03;;;2.70;;
70545;SDS011;58098;51.680;5.134;2023-07-16T13:09:01;8.10;;;3.30;;
70545;SDS011;58098;51.680;5.134;2023-07-16T13:11:26;5.50;;;2.63;;
70545;SDS011;58098;51.680;5.134;2023-07-16T13:13:52;8.10;;;2.70;;
70545;SDS011;58098;51.680;5.134;2023-07-16T13:16:17;4.38;;;2.50;;
70545;SDS011;58098;51.680;5.134;2023-07-16T13:18:43;5.53;;;2.63;;
70545;SDS011;58098;51.680;5.134;2023-07-16T13:21:08;6.50;;;2.08;;
70545;SDS011;58098;51.680;5.134;2023-07-16T13:23:34;3.70;;;2.20;;
70545;SDS011;58098;51.680;5.134;2023-07-16T13:26:00;7.15;;;2.40;;
70545;SDS011;58098;51.680;5.134;2023-07-16T13:28:26;5.47;;;2.30;;
70545;SDS011;58098;51.680;5.134;2023-07-16T13:30:51;7.83;;;2.53;;
70545;SDS011;58098;51.680;5.134;2023-07-16T13:33:16;6.73;;;2.47;;
70545;SDS011;58098;51.680;5.134;2023-07-16T13:35:42;5.03;;;2.20;;
70545;SDS011;58098;51.680;5.134;2023-07-16T13:38:08;6.10;;;2.30;;
70545;SDS011;58098;51.680;5.134;2023-07-16T13:40:33;4.43;;;2.33;;
70545;SDS011;58098;51.680;5.134;2023-07-16T13:43:01;5.53;;;2.57;;
70545;SDS011;58098;51.680;5.134;2023-07-16T13:45:27;6.18;;;2.33;;
70545;SDS011;58098;51.680;5.134;2023-07-16T13:47:52;9.60;;;2.03;;
70545;SDS011;58098;51.680;5.134;2023-07-16T13:50:19;6.18;;;2.10;;
70545;SDS011;58098;51.680;5.134;2023-07-16T13:52:44;4.87;;;2.10;;
70545;SDS011;58098;51.680;5.134;2023-07-16T13:55:10;4.60;;;2.10;;
70545;SDS011;58098;51.680;5.134;2023-07-16T13:57:35;3.88;;;2.08;;
70545;SDS011;58098;51.680;5.134;2023-07-16T14:00:01;5.63;;;2.20;;
70545;SDS011;58098;51.680;5.134;2023-07-16T14:02:29;4.30;;;2.53;;
70545;SDS011;58098;51.680;5.134;2023-07-16T14:04:54;3.70;;;2.40;;
70545;SDS011;58098;51.680;5.134;2023-07-16T14:07:19;4.82;;;2.40;;
70545;SDS011;58098;51.680;5.134;2023-07-16T14:09:45;6.10;;;2.30;;
70545;SDS011;58098;51.680;5.134;2023-07-16T14:12:10;6.30;;;2.23;;
70545;SDS011;58098;51.680;5.134;2023-07-16T14:14:35;3.27;;;2.40;;
70545;SDS011;58098;51.680;5.134;2023-07-16T14:17:01;5.43;;;2.63;;
70545;SDS011;58098;51.680;5.134;2023-07-16T14:19:26;5.30;;;2.47;;
70545;SDS011;58098;51.680;5.134;2023-07-16T14:21:52;4.88;;;2.50;;
70545;SDS011;58098;51.680;5.134;2023-07-16T14:24:17;5.47;;;2.10;;
70545;SDS011;58098;51.680;5.134;2023-07-16T14:26:43;5.53;;;2.60;;
70545;SDS011;58098;51.680;5.134;2023-07-16T14:29:08;6.60;;;2.60;;
70545;SDS011;58098;51.680;5.134;2023-07-16T14:31:33;4.83;;;2.63;;
70545;SDS011;58098;51.680;5.134;2023-07-16T14:33:59;8.35;;;2.70;;
70545;SDS011;58098;51.680;5.134;2023-07-16T14:36:24;7.00;;;2.80;;